Time;durP1;ratioP1;P1;durP2;ratioP2;P2;SDS_P1;SDS_P2;PMS_P1;PMS_P2;Temp;Humidity;BMP_temperature;BMP_pressure;BME280_temperature;BME280_humidity;BME280_pressure;Samples;Min_cycle;Max_cycle;Signal;HPM_P1;HPM_P2
2023/10/24 00:00:51;;;;;;;31.70;7.40;;;15.60;97.50;;;;;;5088785;28;20032;-53
2023/10/24 00:03:16;;;;;;;35.47;7.75;;;15.60;97.50;;;;;;5070907;28;20047;-53
2023/10/24 00:05:42;;;;;;;30.05;6.90;;;15.60;97.50;;;;;;5070992;28;20034;-53
2023/10/24 00:08:07;;;;;;;34.05;7.75;;;15.60;97.50;;;;;;5070604;28;20021;-53
2023/10/24 00:10:33;;;;;;;29.27;7.30;;;15.60;97.50;;;;;;5070621;28;20054;-53
2023/10/24 00:12:59;;;;;;;28.98;7.00;;;15.60;97.50;;;;;;5088728;28;20072;-53
2023/10/24 00:15:25;;;;;;;28.90;7.53;;;15.60;97.50;;;;;;5070701;28;20056;-53
2023/10/24 00:17:51;;;;;;;24.30;6.93;;;15.60;97.50;;;;;;5070489;28;20028;-53
2023/10/24 00:20:16;;;;;;;24.85;7.43;;;15.60;97.50;;;;;;5069943;28;20039;-53
2023/10/24 00:22:42;;;;;;;28.25;7.40;;;15.60;97.50;;;;;;5070037;28;20032;-53
2023/10/24 00:25:08;;;;;;;35.22;7.90;;;15.60;97.50;;;;;;5070589;28;20025;-53
2023/10/24 00:27:33;;;;;;;19.02;6.68;;;15.60;97.50;;;;;;5070537;28;20040;-53
2023/10/24 00:29:59;;;;;;;23.10;7.00;;;15.60;97.50;;;;;;5088489;28;20051;-53
2023/10/24 00:32:24;;;;;;;24.60;6.75;;;15.50;97.50;;;;;;5070390;28;20107;-53
2023/10/24 00:34:50;;;;;;;29.48;6.80;;;15.60;97.60;;;;;;5070690;28;20028;-52
2023/10/24 00:37:15;;;;;;;22.60;7.20;;;15.60;97.60;;;;;;5070278;28;20373;-53
2023/10/24 00:39:41;;;;;;;24.90;7.05;;;15.50;97.60;;;;;;5070131;28;20020;-53
2023/10/24 00:42:07;;;;;;;17.92;7.57;;;15.50;97.60;;;;;;5070058;28;20037;-53
2023/10/24 00:44:32;;;;;;;18.15;6.30;;;15.60;97.70;;;;;;5070228;28;20084;-53
2023/10/24 00:46:58;;;;;;;25.50;6.40;;;15.50;97.60;;;;;;5088105;28;20032;-53
2023/10/24 00:49:24;;;;;;;22.73;6.40;;;15.50;97.70;;;;;;5053327;28;20476;-52
2023/10/24 00:51:50;;;;;;;21.92;6.53;;;15.50;97.70;;;;;;5053243;28;20029;-53
2023/10/24 00:54:15;;;;;;;19.83;6.20;;;15.50;97.70;;;;;;5086849;28;20043;-53
2023/10/24 00:56:41;;;;;;;20.85;7.10;;;15.50;97.70;;;;;;5086629;28;20484;-53
2023/10/24 00:59:06;;;;;;;19.42;5.78;;;15.50;97.70;;;;;;5070029;28;20076;-53
2023/10/24 01:01:32;;;;;;;19.10;6.32;;;15.50;97.80;;;;;;5069654;28;20079;-53
2023/10/24 01:03:58;;;;;;;24.33;7.07;;;15.50;97.80;;;;;;5069768;28;20020;-53
2023/10/24 01:06:24;;;;;;;17.65;6.40;;;15.50;97.80;;;;;;5069594;28;20082;-53
2023/10/24 01:08:49;;;;;;;21.50;6.90;;;15.50;97.90;;;;;;5087488;28;20464;-53
2023/10/24 01:11:15;;;;;;;18.63;6.65;;;15.50;97.80;;;;;;5087388;28;20105;-53
2023/10/24 01:13:40;;;;;;;20.60;6.47;;;15.40;97.90;;;;;;5069770;28;20024;-53
2023/10/24 01:16:06;;;;;;;17.52;6.53;;;15.40;97.90;;;;;;5069472;28;20028;-53
2023/10/24 01:18:31;;;;;;;20.67;6.50;;;15.40;97.90;;;;;;5087275;28;20021;-53
2023/10/24 01:20:57;;;;;;;15.05;5.97;;;15.50;98.00;;;;;;5087127;28;20033;-53
2023/10/24 01:23:23;;;;;;;21.55;6.78;;;15.50;98.10;;;;;;5069664;28;20048;-52
2023/10/24 01:25:49;;;;;;;23.77;5.82;;;15.40;97.90;;;;;;5069460;28;20112;-53
2023/10/24 01:28:14;;;;;;;20.15;6.25;;;15.40;97.90;;;;;;5069332;28;20077;-53
2023/10/24 01:30:40;;;;;;;15.70;6.70;;;15.40;97.90;;;;;;5068031;28;20047;-53
2023/10/24 01:33:06;;;;;;;23.48;7.45;;;15.40;97.90;;;;;;5086925;28;20043;-53
2023/10/24 01:35:31;;;;;;;16.48;6.68;;;15.40;98.00;;;;;;5069053;28;20021;-53
2023/10/24 01:37:57;;;;;;;19.13;6.50;;;15.40;98.00;;;;;;5086851;28;20107;-53
2023/10/24 01:40:32;;;;;;;18.85;6.45;;;15.40;98.00;;;;;;5068555;28;20477;-52
2023/10/24 01:42:57;;;;;;;22.60;6.43;;;15.40;98.10;;;;;;5070462;28;20043;-57
2023/10/24 01:45:23;;;;;;;15.32;6.00;;;15.40;98.10;;;;;;5087088;28;20025;-57
2023/10/24 01:47:49;;;;;;;17.73;5.85;;;15.40;98.10;;;;;;5068790;28;20039;-57
2023/10/24 01:50:14;;;;;;;13.95;5.80;;;15.40;98.10;;;;;;5086835;28;20031;-57
2023/10/24 01:52:40;;;;;;;20.55;5.40;;;15.30;98.10;;;;;;5068739;28;20577;-57
2023/10/24 01:55:06;;;;;;;15.70;6.40;;;15.30;98.10;;;;;;5086560;28;20025;-57
2023/10/24 01:57:31;;;;;;;17.95;6.05;;;15.30;98.00;;;;;;5086611;28;20028;-57
2023/10/24 01:59:57;;;;;;;12.65;5.95;;;15.30;98.00;;;;;;5068640;28;20020;-57
2023/10/24 02:02:22;;;;;;;18.75;5.93;;;15.30;98.10;;;;;;5086466;28;20024;-57
2023/10/24 02:04:48;;;;;;;16.52;6.30;;;15.30;98.10;;;;;;5068797;28;20020;-57
2023/10/24 02:07:13;;;;;;;12.18;5.60;;;15.30;98.10;;;;;;5086468;28;20037;-57
2023/10/24 02:09:39;;;;;;;16.73;6.43;;;15.30;98.10;;;;;;5068668;28;20029;-57
2023/10/24 02:12:05;;;;;;;11.43;5.00;;;15.20;98.10;;;;;;5068480;28;20055;-57
2023/10/24 02:14:30;;;;;;;14.65;5.25;;;15.30;98.10;;;;;;5068523;28;20036;-57
2023/10/24 02:16:56;;;;;;;11.73;5.07;;;15.30;98.10;;;;;;5068551;28;20036;-57
2023/10/24 02:19:23;;;;;;;13.20;5.45;;;15.30;98.10;;;;;;5068631;28;20048;-57
2023/10/24 02:21:49;;;;;;;14.98;5.45;;;15.30;98.10;;;;;;5068546;28;20040;-57
2023/10/24 02:24:14;;;;;;;13.95;5.78;;;15.20;98.00;;;;;;5068442;28;20050;-57
2023/10/24 02:26:40;;;;;;;11.40;5.40;;;15.30;98.10;;;;;;5068474;28;20523;-57
2023/10/24 02:29:05;;;;;;;12.55;5.20;;;15.20;98.00;;;;;;5068307;28;20029;-57
2023/10/24 02:31:31;;;;;;;12.15;5.20;;;15.20;98.10;;;;;;5068373;28;20057;-57
2023/10/24 02:33:57;;;;;;;12.93;5.13;;;15.20;98.10;;;;;;5068032;28;20033;-57
2023/10/24 02:36:22;;;;;;;7.63;4.75;;;15.20;98.10;;;;;;5086212;28;20017;-57
2023/10/24 02:38:48;;;;;;;10.70;4.65;;;15.20;98.10;;;;;;5068239;28;20107;-56
2023/10/24 02:41:13;;;;;;;11.55;5.15;;;15.20;98.10;;;;;;5085852;28;20032;-57
2023/10/24 02:43:39;;;;;;;11.35;4.78;;;15.20;98.10;;;;;;5050370;28;20045;-57
2023/10/24 02:46:05;;;;;;;7.15;4.32;;;15.20;98.10;;;;;;5086114;28;20104;-57
2023/10/24 02:48:31;;;;;;;13.82;5.07;;;15.10;98.10;;;;;;5067782;28;20133;-57
2023/10/24 02:50:57;;;;;;;10.43;4.43;;;15.10;98.10;;;;;;5067922;28;20469;-57
2023/10/24 02:53:23;;;;;;;9.60;4.53;;;15.20;98.10;;;;;;5067942;28;20042;-57
2023/10/24 02:55:49;;;;;;;10.10;4.45;;;15.10;98.40;;;;;;5068094;28;20520;-56
2023/10/24 02:58:15;;;;;;;12.23;4.78;;;15.10;98.10;;;;;;5047867;28;20040;-56
2023/10/24 03:00:41;;;;;;;10.18;4.82;;;15.10;98.10;;;;;;5085164;28;20029;-57
2023/10/24 03:03:07;;;;;;;13.27;4.70;;;15.10;98.10;;;;;;5067678;28;20068;-57
2023/10/24 03:05:32;;;;;;;9.93;4.32;;;15.10;98.10;;;;;;5085776;28;20032;-57
2023/10/24 03:07:58;;;;;;;11.40;4.90;;;15.10;98.10;;;;;;5067703;28;20052;-57
2023/10/24 03:10:26;;;;;;;10.52;4.55;;;15.10;98.10;;;;;;5085916;28;20017;-57
2023/10/24 03:12:52;;;;;;;8.90;4.50;;;15.10;98.10;;;;;;5085501;28;20051;-57
2023/10/24 03:15:18;;;;;;;13.25;5.13;;;15.10;98.10;;;;;;5067849;28;20021;-57
2023/10/24 03:17:43;;;;;;;7.78;4.47;;;15.10;98.00;;;;;;5085640;28;20032;-57
2023/10/24 03:20:09;;;;;;;9.07;4.47;;;15.10;98.00;;;;;;5085903;28;20024;-57
2023/10/24 03:22:35;;;;;;;9.95;4.65;;;15.00;98.10;;;;;;5067638;28;20038;-57
2023/10/24 03:25:01;;;;;;;11.52;4.25;;;15.00;98.10;;;;;;5067829;28;20024;-57
2023/10/24 03:27:26;;;;;;;10.00;4.38;;;15.00;98.10;;;;;;5067795;28;20065;-57
2023/10/24 03:29:52;;;;;;;13.48;4.20;;;15.00;98.10;;;;;;5067714;28;20499;-57
2023/10/24 03:32:18;;;;;;;8.63;4.82;;;15.00;98.10;;;;;;5051353;28;20075;-57
2023/10/24 03:34:43;;;;;;;11.65;4.30;;;15.00;98.10;;;;;;5067957;28;20024;-57
2023/10/24 03:37:09;;;;;;;7.28;3.85;;;15.00;98.10;;;;;;5085582;28;20418;-57
2023/10/24 03:39:34;;;;;;;8.50;4.63;;;15.00;98.10;;;;;;5067690;28;20354;-57
2023/10/24 03:42:00;;;;;;;9.05;4.90;;;15.00;98.10;;;;;;5067709;28;20396;-57
2023/10/24 03:44:25;;;;;;;9.18;5.03;;;15.00;98.20;;;;;;5067478;28;20048;-57
2023/10/24 03:46:51;;;;;;;14.65;4.97;;;15.00;98.20;;;;;;5085428;28;20036;-57
2023/10/24 03:49:16;;;;;;;11.23;4.78;;;15.00;98.20;;;;;;5067494;28;20385;-57
2023/10/24 03:51:43;;;;;;;9.60;4.78;;;14.90;98.10;;;;;;5067591;28;20035;-57
2023/10/24 03:54:08;;;;;;;9.93;4.50;;;14.90;98.20;;;;;;5068547;28;20025;-57
2023/10/24 03:56:34;;;;;;;8.35;4.53;;;15.10;98.30;;;;;;5070999;28;20051;-57
2023/10/24 03:58:59;;;;;;;7.90;4.55;;;15.00;98.30;;;;;;5088939;28;20036;-57
2023/10/24 04:01:25;;;;;;;9.90;4.32;;;14.90;98.30;;;;;;5071136;28;20036;-57
2023/10/24 04:03:52;;;;;;;8.35;4.45;;;14.90;98.30;;;;;;5070930;28;20032;-57
2023/10/24 04:06:17;;;;;;;11.27;4.57;;;14.90;98.40;;;;;;5088999;28;20044;-57
2023/10/24 04:08:43;;;;;;;8.30;4.47;;;14.90;98.40;;;;;;5070326;28;20524;-58
2023/10/24 04:11:18;;;;;;;9.27;4.15;;;14.90;98.40;;;;;;5070681;28;20037;-57
2023/10/24 04:13:44;;;;;;;9.57;4.28;;;14.90;98.40;;;;;;5071309;28;20043;-57
2023/10/24 04:16:10;;;;;;;6.82;3.67;;;14.80;98.30;;;;;;5088812;28;20029;-57
2023/10/24 04:18:36;;;;;;;12.77;4.45;;;14.90;98.40;;;;;;5070759;28;20029;-57
2023/10/24 04:21:02;;;;;;;8.88;4.32;;;14.80;98.40;;;;;;5070607;28;20059;-57
2023/10/24 04:23:28;;;;;;;11.65;4.78;;;14.80;98.50;;;;;;5070446;28;20054;-56
2023/10/24 04:25:54;;;;;;;5.60;3.45;;;14.80;98.50;;;;;;5070263;28;20560;-57
2023/10/24 04:28:19;;;;;;;11.82;4.03;;;14.80;98.50;;;;;;5070369;28;20032;-57
2023/10/24 04:30:45;;;;;;;11.00;4.43;;;14.80;98.50;;;;;;5071061;28;20056;-57
2023/10/24 04:33:10;;;;;;;7.28;4.10;;;14.80;98.50;;;;;;5070490;28;20040;-56
2023/10/24 04:35:50;;;;;;;7.38;3.60;;;14.80;98.50;;;;;;5088352;28;20016;-57
2023/10/24 04:38:16;;;;;;;6.20;3.78;;;14.80;98.40;;;;;;5070915;28;20032;-57
2023/10/24 04:40:42;;;;;;;9.70;3.90;;;14.80;98.40;;;;;;5088284;28;20047;-56
2023/10/24 04:43:08;;;;;;;7.72;4.07;;;14.80;98.40;;;;;;5070230;28;20032;-57
2023/10/24 04:45:34;;;;;;;8.73;3.90;;;14.80;98.40;;;;;;5070362;28;20105;-57
2023/10/24 04:48:00;;;;;;;10.60;3.55;;;14.70;98.40;;;;;;5070090;28;20040;-57
2023/10/24 04:50:26;;;;;;;6.85;3.47;;;14.70;98.50;;;;;;5087834;28;20422;-57
2023/10/24 04:52:52;;;;;;;6.97;3.50;;;14.70;98.50;;;;;;5071587;28;20020;-56
2023/10/24 04:55:17;;;;;;;7.75;4.18;;;14.70;98.50;;;;;;5090727;28;20070;-57
2023/10/24 04:57:43;;;;;;;7.47;3.42;;;14.70;98.50;;;;;;5089590;28;20032;-56
2023/10/24 05:00:13;;;;;;;8.85;3.60;;;14.70;98.50;;;;;;5070180;28;20035;-57
2023/10/24 05:02:39;;;;;;;9.43;3.53;;;14.70;98.50;;;;;;5070878;28;20032;-57
2023/10/24 05:05:05;;;;;;;6.82;3.33;;;14.70;98.60;;;;;;5087464;28;20020;-56
2023/10/24 05:07:31;;;;;;;6.90;3.67;;;14.70;98.60;;;;;;5070344;28;20028;-57
2023/10/24 05:09:57;;;;;;;4.68;3.38;;;14.70;98.50;;;;;;5069538;28;20409;-57
2023/10/24 05:12:22;;;;;;;6.13;3.13;;;14.70;98.60;;;;;;5069508;28;20025;-56
2023/10/24 05:14:48;;;;;;;6.40;3.55;;;14.60;98.70;;;;;;5069578;28;20107;-57
2023/10/24 05:17:14;;;;;;;8.32;3.80;;;14.60;98.70;;;;;;5069574;28;20492;-57
2023/10/24 05:19:43;;;;;;;9.10;3.95;;;14.60;98.70;;;;;;5069188;28;20033;-57
2023/10/24 05:22:10;;;;;;;8.30;3.45;;;14.60;98.70;;;;;;5069869;28;20032;-56
2023/10/24 05:24:36;;;;;;;6.90;3.65;;;14.60;98.70;;;;;;5069534;28;20038;-57
2023/10/24 05:27:02;;;;;;;6.40;3.00;;;14.60;98.80;;;;;;5069176;28;20027;-57
2023/10/24 05:29:27;;;;;;;7.10;3.67;;;14.60;98.80;;;;;;5086838;28;20028;-57
2023/10/24 05:31:53;;;;;;;7.03;3.42;;;14.50;98.80;;;;;;5069158;28;20020;-56
2023/10/24 05:34:18;;;;;;;5.53;3.30;;;14.50;98.80;;;;;;5069182;28;20028;-57
2023/10/24 05:36:44;;;;;;;6.50;3.38;;;14.50;98.90;;;;;;5069005;28;20020;-56
2023/10/24 05:39:09;;;;;;;5.25;3.30;;;14.50;98.90;;;;;;5087041;28;20033;-55
2023/10/24 05:41:35;;;;;;;6.75;3.60;;;14.50;98.90;;;;;;5068822;28;20107;-57
2023/10/24 05:44:01;;;;;;;8.57;3.33;;;14.50;98.90;;;;;;5068730;28;20088;-57
2023/10/24 05:46:27;;;;;;;7.80;3.47;;;14.50;98.90;;;;;;5068937;28;20012;-57
2023/10/24 05:48:53;;;;;;;5.47;3.28;;;14.50;98.80;;;;;;5068727;28;20040;-57
2023/10/24 05:51:27;;;;;;;4.65;3.20;;;14.50;98.80;;;;;;5069143;28;20053;-57
2023/10/24 05:53:53;;;;;;;4.43;3.17;;;14.50;98.80;;;;;;5086629;28;20084;-57
2023/10/24 05:56:19;;;;;;;7.05;2.83;;;14.50;99.20;;;;;;5086689;28;20040;-57
2023/10/24 05:58:44;;;;;;;7.68;3.40;;;14.50;98.90;;;;;;5068646;28;20036;-57
2023/10/24 06:01:10;;;;;;;6.60;3.25;;;14.50;98.90;;;;;;5068634;28;20024;-57
2023/10/24 06:03:36;;;;;;;6.70;3.08;;;14.50;99.00;;;;;;5068631;28;20036;-57
2023/10/24 06:06:01;;;;;;;5.82;2.75;;;14.40;99.00;;;;;;5086605;28;20028;-57
2023/10/24 06:08:27;;;;;;;9.13;3.05;;;14.40;99.10;;;;;;5068645;28;20047;-57
2023/10/24 06:11:00;;;;;;;3.30;2.78;;;14.40;99.10;;;;;;5086578;28;20044;-56
2023/10/24 06:13:26;;;;;;;7.47;2.97;;;14.40;99.20;;;;;;5068549;28;20028;-57
2023/10/24 06:15:51;;;;;;;8.48;3.25;;;14.40;99.10;;;;;;5068075;28;20025;-57
2023/10/24 06:18:18;;;;;;;5.20;2.80;;;14.40;99.10;;;;;;5068037;28;20029;-57
2023/10/24 06:20:43;;;;;;;8.23;3.08;;;14.40;99.10;;;;;;5068138;28;20549;-57
2023/10/24 06:23:10;;;;;;;4.53;3.20;;;14.40;99.10;;;;;;5086191;28;20032;-56
2023/10/24 06:25:39;;;;;;;5.47;3.15;;;14.40;99.10;;;;;;5086353;28;20025;-57
2023/10/24 06:28:05;;;;;;;6.72;3.15;;;14.40;99.20;;;;;;5086127;28;20061;-56
2023/10/24 06:30:31;;;;;;;3.25;2.42;;;14.40;99.20;;;;;;5068346;28;20056;-56
2023/10/24 06:32:57;;;;;;;5.88;2.80;;;14.40;99.30;;;;;;5085428;28;20122;-56
2023/10/24 06:35:23;;;;;;;6.53;3.13;;;14.40;99.30;;;;;;5086011;28;20465;-56
2023/10/24 06:37:48;;;;;;;5.80;2.97;;;14.30;99.30;;;;;;5086236;28;20033;-56
2023/10/24 06:40:14;;;;;;;5.78;2.60;;;14.30;99.30;;;;;;5050947;28;20088;-57
2023/10/24 06:42:39;;;;;;;9.82;2.80;;;14.40;99.30;;;;;;5067361;28;20464;-57
2023/10/24 06:45:06;;;;;;;6.60;3.30;;;14.40;99.30;;;;;;5067135;28;20035;-57
2023/10/24 06:47:32;;;;;;;7.07;2.90;;;14.40;99.30;;;;;;5067670;28;20028;-56
2023/10/24 06:49:58;;;;;;;6.15;3.05;;;14.40;99.30;;;;;;5067307;28;20023;-57
2023/10/24 06:52:23;;;;;;;6.57;3.10;;;14.40;99.30;;;;;;5050345;28;20416;-57
2023/10/24 06:54:49;;;;;;;8.43;3.38;;;14.30;99.30;;;;;;5085915;28;20016;-57
2023/10/24 06:57:14;;;;;;;9.77;3.42;;;14.30;99.40;;;;;;5068213;28;20408;-57
2023/10/24 06:59:40;;;;;;;7.85;3.03;;;14.40;99.40;;;;;;5034787;28;20042;-57
2023/10/24 07:02:06;;;;;;;12.77;3.60;;;14.40;99.40;;;;;;5067386;28;20064;-57
2023/10/24 07:04:31;;;;;;;10.70;3.30;;;14.40;99.50;;;;;;5067607;28;20037;-56
2023/10/24 07:06:57;;;;;;;10.90;3.88;;;14.40;99.50;;;;;;5067861;28;20047;-57
2023/10/24 07:09:23;;;;;;;8.48;3.00;;;14.40;99.60;;;;;;5067714;28;20025;-57
2023/10/24 07:11:48;;;;;;;14.43;3.90;;;14.40;99.50;;;;;;5067931;28;20365;-57
2023/10/24 07:14:14;;;;;;;10.80;3.75;;;14.40;99.60;;;;;;5067515;28;20029;-57
2023/10/24 07:16:40;;;;;;;9.20;3.38;;;14.40;99.70;;;;;;5067786;28;20021;-56
2023/10/24 07:19:05;;;;;;;14.45;4.15;;;14.40;99.70;;;;;;5085860;28;20025;-57
2023/10/24 07:21:31;;;;;;;18.90;4.20;;;14.30;99.70;;;;;;5067461;28;20058;-57
2023/10/24 07:23:58;;;;;;;15.32;3.67;;;14.40;99.80;;;;;;5085839;28;20051;-57
2023/10/24 07:26:23;;;;;;;17.60;3.88;;;14.40;99.70;;;;;;5072693;28;20028;-56
2023/10/24 07:28:49;;;;;;;10.60;3.25;;;14.40;99.70;;;;;;5076596;28;20175;-57
2023/10/24 07:31:15;;;;;;;13.55;3.63;;;14.40;99.70;;;;;;5071313;28;20021;-57
2023/10/24 07:33:41;;;;;;;14.75;3.38;;;14.40;99.60;;;;;;5054602;28;20037;-57
2023/10/24 07:36:07;;;;;;;14.25;3.22;;;14.40;99.60;;;;;;5054900;28;20017;-57
2023/10/24 07:38:33;;;;;;;7.63;3.08;;;14.40;99.60;;;;;;5054976;28;20032;-57
2023/10/24 07:40:59;;;;;;;13.50;3.33;;;14.40;99.70;;;;;;5071344;28;20461;-57
2023/10/24 07:43:25;;;;;;;9.02;3.55;;;14.40;99.70;;;;;;5075438;28;20075;-57
2023/10/24 07:45:51;;;;;;;6.38;3.33;;;14.40;99.70;;;;;;5072495;28;20024;-57
2023/10/24 07:48:16;;;;;;;12.93;3.50;;;14.40;99.70;;;;;;5071340;28;20495;-57
2023/10/24 07:50:58;;;;;;;6.90;3.45;;;14.40;99.80;;;;;;5060204;28;20067;-57
2023/10/24 07:53:25;;;;;;;8.82;3.47;;;14.40;99.90;;;;;;5067749;28;20489;-57
2023/10/24 07:55:51;;;;;;;10.88;3.40;;;14.40;99.90;;;;;;5035554;28;20029;-57
2023/10/24 07:58:16;;;;;;;5.38;3.20;;;14.40;99.90;;;;;;5087390;28;20060;-57
2023/10/24 08:00:45;;;;;;;9.18;3.50;;;14.40;99.90;;;;;;5074647;28;20031;-57
2023/10/24 08:03:12;;;;;;;10.98;3.95;;;14.40;99.90;;;;;;5073957;28;20028;-57
2023/10/24 08:05:38;;;;;;;9.60;3.42;;;14.40;99.90;;;;;;5070668;28;20062;-57
2023/10/24 08:08:04;;;;;;;16.73;4.35;;;14.40;99.90;;;;;;5088490;28;20201;-57
2023/10/24 08:10:31;;;;;;;9.25;3.90;;;14.40;99.90;;;;;;5079716;28;20012;-57
2023/10/24 08:12:57;;;;;;;11.73;3.88;;;14.40;99.90;;;;;;5073502;28;20051;-57
2023/10/24 08:15:22;;;;;;;9.75;4.20;;;14.40;99.90;;;;;;5087385;28;20081;-57
2023/10/24 08:17:48;;;;;;;10.35;3.58;;;14.40;99.90;;;;;;5056907;28;20059;-57
2023/10/24 08:20:14;;;;;;;9.43;3.63;;;14.40;99.90;;;;;;5079390;28;20108;-57
2023/10/24 08:22:39;;;;;;;12.25;4.13;;;14.40;99.90;;;;;;5071627;28;20054;-58
2023/10/24 08:25:05;;;;;;;16.10;3.80;;;14.50;99.90;;;;;;5091303;28;20131;-57
2023/10/24 08:27:31;;;;;;;12.63;4.22;;;14.40;99.90;;;;;;5092085;28;20112;-58
2023/10/24 08:29:57;;;;;;;10.40;3.67;;;14.40;99.90;;;;;;5083449;28;20077;-57
2023/10/24 08:32:22;;;;;;;17.33;4.80;;;14.50;99.90;;;;;;5088222;28;20032;-58
2023/10/24 08:34:48;;;;;;;16.42;4.53;;;14.50;99.90;;;;;;5070086;28;20120;-58
2023/10/24 08:37:14;;;;;;;20.08;4.90;;;14.50;99.90;;;;;;5085965;28;20043;-58
2023/10/24 08:39:39;;;;;;;12.20;4.30;;;14.50;99.90;;;;;;5083724;28;20036;-58
2023/10/24 08:42:05;;;;;;;20.13;5.25;;;14.50;99.90;;;;;;5073716;28;20040;-58
2023/10/24 08:44:31;;;;;;;9.77;3.53;;;14.50;99.90;;;;;;5061751;28;20484;-59
2023/10/24 08:46:56;;;;;;;16.52;4.13;;;14.50;99.90;;;;;;5070157;28;20043;-58
2023/10/24 08:49:23;;;;;;;35.95;5.55;;;14.50;99.90;;;;;;5063202;28;20028;-58
2023/10/24 08:51:48;;;;;;;39.55;7.03;;;14.50;99.90;;;;;;5083046;28;20024;-58
2023/10/24 08:54:14;;;;;;;25.13;5.90;;;14.50;99.90;;;;;;5073204;28;20058;-58
2023/10/24 08:56:40;;;;;;;19.95;5.13;;;14.60;99.90;;;;;;5070118;28;20024;-58
2023/10/24 08:59:07;;;;;;;27.83;5.20;;;14.60;99.90;;;;;;5059168;28;20033;-58
2023/10/24 09:01:34;;;;;;;32.50;5.80;;;14.60;99.90;;;;;;5056475;28;20040;-58
2023/10/24 09:04:00;;;;;;;32.10;6.57;;;14.50;99.90;;;;;;5049447;28;20093;-58
2023/10/24 09:06:33;;;;;;;28.40;6.10;;;14.60;99.90;;;;;;5069012;28;20052;-58
2023/10/24 09:08:58;;;;;;;37.75;6.00;;;14.60;99.90;;;;;;5082042;28;20024;-58
2023/10/24 09:11:24;;;;;;;35.88;5.78;;;14.60;99.90;;;;;;5099993;28;20024;-57
2023/10/24 09:13:50;;;;;;;38.15;6.18;;;14.60;99.90;;;;;;5063671;28;20036;-58
2023/10/24 09:16:15;;;;;;;48.97;6.70;;;14.60;99.90;;;;;;5082098;28;20035;-58
2023/10/24 09:18:41;;;;;;;26.55;5.72;;;14.60;99.90;;;;;;5063589;28;20036;-58
2023/10/24 09:21:07;;;;;;;44.95;7.65;;;14.60;99.90;;;;;;5083161;28;20058;-58
2023/10/24 09:23:35;;;;;;;33.10;6.78;;;14.60;99.90;;;;;;5059685;28;20053;-58
2023/10/24 09:26:04;;;;;;;72.97;9.38;;;14.60;99.90;;;;;;5052904;28;20032;-58
2023/10/24 09:28:30;;;;;;;35.97;8.05;;;14.60;99.90;;;;;;5065809;28;20101;-58
2023/10/24 09:30:59;;;;;;;48.13;8.05;;;14.60;99.90;;;;;;5088124;28;20044;-58
2023/10/24 09:33:27;;;;;;;49.03;9.45;;;14.60;99.90;;;;;;5082196;28;20029;-57
2023/10/24 09:35:53;;;;;;;48.88;8.25;;;14.60;99.90;;;;;;5070967;28;20031;-58
2023/10/24 09:38:21;;;;;;;70.22;9.35;;;14.70;99.90;;;;;;5061467;28;20452;-58
2023/10/24 09:40:46;;;;;;;53.30;9.50;;;14.70;99.90;;;;;;5074879;28;20039;-58
2023/10/24 09:43:18;;;;;;;69.22;8.48;;;14.70;99.90;;;;;;5073959;28;20059;-58
2023/10/24 09:45:44;;;;;;;52.03;8.38;;;14.70;99.90;;;;;;5083794;28;20096;-58
2023/10/24 09:48:11;;;;;;;63.60;10.23;;;14.70;99.90;;;;;;5095014;28;20031;-58
2023/10/24 09:50:38;;;;;;;78.50;11.15;;;14.70;99.90;;;;;;5074888;28;20051;-58
2023/10/24 09:53:03;;;;;;;72.88;11.63;;;14.80;99.90;;;;;;5063428;28;20173;-58
2023/10/24 09:55:29;;;;;;;73.32;10.50;;;14.80;99.90;;;;;;5040838;28;20029;-58
2023/10/24 09:57:56;;;;;;;74.18;10.50;;;14.80;99.90;;;;;;5049839;28;20037;-58
2023/10/24 10:00:21;;;;;;;66.82;10.35;;;14.80;99.90;;;;;;5049732;28;20036;-58
2023/10/24 10:02:47;;;;;;;57.05;10.45;;;14.80;99.90;;;;;;5054293;28;20119;-57
2023/10/24 10:05:14;;;;;;;67.20;9.90;;;14.80;99.90;;;;;;5069396;28;20024;-58
2023/10/24 10:07:40;;;;;;;75.72;11.40;;;14.80;99.90;;;;;;5072907;28;20108;-58
2023/10/24 10:10:06;;;;;;;55.55;9.65;;;14.80;99.90;;;;;;5059508;28;20055;-57
2023/10/24 10:12:31;;;;;;;69.28;9.98;;;14.80;99.90;;;;;;5048223;28;20032;-58
2023/10/24 10:15:12;;;;;;;58.17;9.85;;;14.90;99.90;;;;;;5044178;28;20033;-59
2023/10/24 10:18:07;;;;;;;56.67;9.48;;;14.90;99.90;;;;;;5052761;28;20024;-58
2023/10/24 10:20:50;;;;;;;41.90;8.65;;;14.90;99.90;;;;;;5049238;28;20364;-59
2023/10/24 10:23:38;;;;;;;66.60;10.75;;;14.90;99.90;;;;;;5049655;28;20037;-58
2023/10/24 10:26:24;;;;;;;63.75;11.40;;;15.00;99.90;;;;;;5050423;28;20812;-58
2023/10/24 10:29:19;;;;;;;91.50;12.90;;;15.00;99.90;;;;;;5056968;28;20039;-58
2023/10/24 10:32:09;;;;;;;87.65;11.95;;;15.00;99.90;;;;;;5023703;28;20393;-58
2023/10/24 10:34:36;;;;;;;81.22;12.07;;;15.00;99.90;;;;;;5070685;28;20126;-58
2023/10/24 10:37:02;;;;;;;70.38;12.02;;;15.00;99.90;;;;;;5053383;28;20020;-58
2023/10/24 10:39:29;;;;;;;87.70;11.38;;;15.00;99.90;;;;;;5069783;28;20112;-58
2023/10/24 10:41:55;;;;;;;65.07;11.05;;;15.00;99.90;;;;;;5066544;28;20476;-58
2023/10/24 10:44:39;;;;;;;62.65;12.18;;;15.00;99.90;;;;;;5049540;28;20102;-58
2023/10/24 10:47:06;;;;;;;65.05;12.45;;;15.10;99.90;;;;;;5063319;28;20116;-58
2023/10/24 10:49:46;;;;;;;92.00;14.18;;;15.10;99.90;;;;;;5060409;28;20531;-58
2023/10/24 10:52:39;;;;;;;81.18;12.18;;;15.10;99.90;;;;;;5063966;28;20024;-58
2023/10/24 10:55:09;;;;;;;52.58;9.30;;;15.10;99.90;;;;;;5045767;28;20070;-58
2023/10/24 10:57:40;;;;;;;64.47;11.18;;;15.10;99.90;;;;;;5056152;28;20059;-58
2023/10/24 11:00:08;;;;;;;90.90;13.00;;;15.10;99.90;;;;;;5053089;28;20968;-57
2023/10/24 11:03:12;;;;;;;113.20;16.08;;;15.20;99.90;;;;;;5035147;28;20036;-58
2023/10/24 11:05:37;;;;;;;95.65;12.93;;;15.20;99.90;;;;;;5066440;28;20039;-58
2023/10/24 11:08:06;;;;;;;102.40;16.42;;;15.30;99.90;;;;;;5074201;28;20036;-58
2023/10/24 11:10:57;;;;;;;88.18;14.52;;;15.60;99.90;;;;;;5085863;28;20023;-58
2023/10/24 11:13:47;;;;;;;96.80;16.17;;;15.30;99.90;;;;;;5050780;28;20118;-58
2023/10/24 11:16:13;;;;;;;77.78;13.68;;;15.30;99.90;;;;;;5069004;28;20096;-58
2023/10/24 11:18:40;;;;;;;119.93;16.08;;;15.30;99.90;;;;;;5035354;28;20044;-58
2023/10/24 11:21:09;;;;;;;89.95;14.50;;;15.30;99.90;;;;;;5070173;28;20044;-58
2023/10/24 11:23:35;;;;;;;86.47;13.77;;;15.30;99.90;;;;;;5066315;28;20058;-58
2023/10/24 11:26:01;;;;;;;82.85;13.60;;;15.30;99.90;;;;;;5070087;28;20028;-57
2023/10/24 11:28:27;;;;;;;73.15;13.65;;;15.30;99.90;;;;;;5056276;28;20043;-58
2023/10/24 11:30:56;;;;;;;102.72;13.82;;;15.40;99.90;;;;;;5053339;28;20059;-58
2023/10/24 11:33:23;;;;;;;100.88;13.65;;;15.40;99.90;;;;;;5034791;28;20033;-58
2023/10/24 11:35:49;;;;;;;108.93;15.63;;;15.40;99.90;;;;;;5052935;28;20039;-58
2023/10/24 11:38:14;;;;;;;87.30;14.10;;;15.50;99.90;;;;;;5050846;28;20029;-58
2023/10/24 11:40:41;;;;;;;103.68;15.82;;;15.40;99.90;;;;;;5049895;28;20091;-58
2023/10/24 11:43:07;;;;;;;86.88;13.80;;;15.40;99.90;;;;;;5047647;28;20033;-58
2023/10/24 11:45:33;;;;;;;106.80;14.60;;;15.50;99.90;;;;;;5074613;28;20024;-58
2023/10/24 11:47:59;;;;;;;78.65;14.32;;;15.50;99.90;;;;;;5057270;28;20764;-58
2023/10/24 11:50:44;;;;;;;67.57;11.05;;;15.50;99.90;;;;;;5068111;28;20058;-58
2023/10/24 11:53:19;;;;;;;192.47;23.27;;;15.50;99.90;;;;;;5062929;28;20573;-58
2023/10/24 11:55:46;;;;;;;120.65;18.60;;;15.50;99.90;;;;;;5062970;28;20057;-58
2023/10/24 11:58:11;;;;;;;109.40;17.05;;;15.60;99.90;;;;;;5073631;28;20116;-58
2023/10/24 12:00:40;;;;;;;124.97;16.52;;;15.40;99.90;;;;;;5054112;28;20056;-58
2023/10/24 12:03:06;;;;;;;104.25;15.73;;;15.60;99.90;;;;;;5069569;28;20615;-58
2023/10/24 12:05:32;;;;;;;114.63;16.17;;;15.60;99.90;;;;;;5066580;28;20039;-58
2023/10/24 12:07:58;;;;;;;89.63;13.82;;;15.60;99.90;;;;;;5080526;28;20028;-58
2023/10/24 12:10:23;;;;;;;98.00;15.10;;;15.60;99.90;;;;;;5038166;28;20477;-58
2023/10/24 12:12:49;;;;;;;101.90;14.82;;;15.70;99.90;;;;;;5070410;28;20054;-58
2023/10/24 12:15:15;;;;;;;99.90;15.80;;;15.70;99.90;;;;;;5032615;28;20048;-58
2023/10/24 12:17:45;;;;;;;77.35;13.50;;;15.70;99.90;;;;;;5069823;28;20110;-58
2023/10/24 12:20:11;;;;;;;83.53;12.48;;;15.70;99.90;;;;;;5090126;28;20044;-58
2023/10/24 12:22:36;;;;;;;67.90;12.25;;;15.60;99.90;;;;;;5081754;28;20050;-58
2023/10/24 12:25:02;;;;;;;105.43;15.40;;;15.60;99.90;;;;;;5099283;28;20035;-58
2023/10/24 12:27:28;;;;;;;79.07;12.57;;;15.60;99.90;;;;;;5059948;28;20032;-58
2023/10/24 12:29:54;;;;;;;90.45;13.45;;;15.70;99.90;;;;;;5081207;28;20333;-58
2023/10/24 12:32:19;;;;;;;95.88;13.77;;;15.60;99.90;;;;;;5091764;28;20028;-58
2023/10/24 12:34:45;;;;;;;112.75;14.85;;;15.60;99.90;;;;;;5066631;28;20051;-58
2023/10/24 12:37:10;;;;;;;86.70;13.20;;;15.60;99.90;;;;;;5073910;28;20020;-58